sensor_id;sensor_type;location;lat;lon;timestamp;temperature;humidity
42663;DHT22;44330;51.360;6.686;2022-11-12T00:00:16;7.50;91.00
42663;DHT22;44330;51.360;6.686;2022-11-12T00:02:42;7.50;91.00
42663;DHT22;44330;51.360;6.686;2022-11-12T00:05:08;7.50;91.00
42663;DHT22;44330;51.360;6.686;2022-11-12T00:07:33;7.50;91.00
42663;DHT22;44330;51.360;6.686;2022-11-12T00:09:59;7.50;91.00
42663;DHT22;44330;51.360;6.686;2022-11-12T00:12:24;7.50;91.10
42663;DHT22;44330;51.360;6.686;2022-11-12T00:14:50;7.40;91.10
42663;DHT22;44330;51.360;6.686;2022-11-12T00:17:15;7.40;91.10
42663;DHT22;44330;51.360;6.686;2022-11-12T00:19:41;7.40;91.10
42663;DHT22;44330;51.360;6.686;2022-11-12T00:22:06;7.40;91.20
42663;DHT22;44330;51.360;6.686;2022-11-12T00:24:32;7.30;91.20
42663;DHT22;44330;51.360;6.686;2022-11-12T00:26:57;7.40;91.40
42663;DHT22;44330;51.360;6.686;2022-11-12T00:29:23;7.40;91.40
42663;DHT22;44330;51.360;6.686;2022-11-12T00:31:48;7.40;91.40
42663;DHT22;44330;51.360;6.686;2022-11-12T00:34:14;7.30;91.30
42663;DHT22;44330;51.360;6.686;2022-11-12T00:36:39;7.30;91.30
42663;DHT22;44330;51.360;6.686;2022-11-12T00:39:05;7.20;91.20
42663;DHT22;44330;51.360;6.686;2022-11-12T00:41:30;7.10;91.20
42663;DHT22;44330;51.360;6.686;2022-11-12T00:43:56;7.00;91.20
42663;DHT22;44330;51.360;6.686;2022-11-12T00:46:21;6.90;91.10
42663;DHT22;44330;51.360;6.686;2022-11-12T00:48:47;6.80;91.10
42663;DHT22;44330;51.360;6.686;2022-11-12T00:51:12;6.80;91.20
42663;DHT22;44330;51.360;6.686;2022-11-12T00:53:38;6.70;91.20
42663;DHT22;44330;51.360;6.686;2022-11-12T00:56:05;6.70;91.40
42663;DHT22;44330;51.360;6.686;2022-11-12T00:58:33;6.70;91.50
42663;DHT22;44330;51.360;6.686;2022-11-12T01:01:09;6.70;91.60
42663;DHT22;44330;51.360;6.686;2022-11-12T01:03:35;6.80;91.80
42663;DHT22;44330;51.360;6.686;2022-11-12T01:06:08;6.80;91.60
42663;DHT22;44330;51.360;6.686;2022-11-12T01:08:34;6.80;91.60
42663;DHT22;44330;51.360;6.686;2022-11-12T01:11:08;6.70;91.60
42663;DHT22;44330;51.360;6.686;2022-11-12T01:13:35;6.80;91.70
42663;DHT22;44330;51.360;6.686;2022-11-12T01:16:10;6.80;91.80
42663;DHT22;44330;51.360;6.686;2022-11-12T01:18:36;6.80;91.80
42663;DHT22;44330;51.360;6.686;2022-11-12T01:21:03;6.80;91.80
42663;DHT22;44330;51.360;6.686;2022-11-12T01:23:31;6.80;91.80
42663;DHT22;44330;51.360;6.686;2022-11-12T01:25:57;6.80;91.90
42663;DHT22;44330;51.360;6.686;2022-11-12T01:28:23;6.80;91.90
42663;DHT22;44330;51.360;6.686;2022-11-12T01:30:49;6.80;91.90
42663;DHT22;44330;51.360;6.686;2022-11-12T01:33:14;6.80;91.90
42663;DHT22;44330;51.360;6.686;2022-11-12T01:35:40;6.80;91.90
42663;DHT22;44330;51.360;6.686;2022-11-12T01:38:05;6.80;92.00
42663;DHT22;44330;51.360;6.686;2022-11-12T01:40:32;6.80;91.90
42663;DHT22;44330;51.360;6.686;2022-11-12T01:42:57;6.80;91.90
42663;DHT22;44330;51.360;6.686;2022-11-12T01:45:23;6.80;91.90
42663;DHT22;44330;51.360;6.686;2022-11-12T01:47:50;6.80;92.00
42663;DHT22;44330;51.360;6.686;2022-11-12T01:50:23;6.90;91.90
42663;DHT22;44330;51.360;6.686;2022-11-12T01:52:53;6.90;91.90
42663;DHT22;44330;51.360;6.686;2022-11-12T01:55:28;6.90;91.90
42663;DHT22;44330;51.360;6.686;2022-11-12T01:58:02;6.90;91.90
42663;DHT22;44330;51.360;6.686;2022-11-12T02:00:29;6.90;91.90
42663;DHT22;44330;51.360;6.686;2022-11-12T02:02:57;6.90;91.90
42663;DHT22;44330;51.360;6.686;2022-11-12T02:05:23;6.80;91.90
42663;DHT22;44330;51.360;6.686;2022-11-12T02:07:50;6.80;91.90
42663;DHT22;44330;51.360;6.686;2022-11-12T02:10:16;6.80;91.90
42663;DHT22;44330;51.360;6.686;2022-11-12T02:12:43;6.70;91.90
42663;DHT22;44330;51.360;6.686;2022-11-12T02:15:27;6.70;91.90
42663;DHT22;44330;51.360;6.686;2022-11-12T02:17:53;6.70;91.90
42663;DHT22;44330;51.360;6.686;2022-11-12T02:20:19;6.60;91.80
42663;DHT22;44330;51.360;6.686;2022-11-12T02:22:45;6.60;91.80
42663;DHT22;44330;51.360;6.686;2022-11-12T02:25:17;6.50;91.80
42663;DHT22;44330;51.360;6.686;2022-11-12T02:27:44;6.50;91.90
42663;DHT22;44330;51.360;6.686;2022-11-12T02:30:10;6.40;91.90
42663;DHT22;44330;51.360;6.686;2022-11-12T02:32:36;6.40;91.90
42663;DHT22;44330;51.360;6.686;2022-11-12T02:35:02;6.30;91.90
42663;DHT22;44330;51.360;6.686;2022-11-12T02:37:27;6.30;92.00
42663;DHT22;44330;51.360;6.686;2022-11-12T02:39:53;6.30;92.00
42663;DHT22;44330;51.360;6.686;2022-11-12T02:42:18;6.30;92.10
42663;DHT22;44330;51.360;6.686;2022-11-12T02:44:44;6.30;92.10
42663;DHT22;44330;51.360;6.686;2022-11-12T02:47:10;6.30;92.10
42663;DHT22;44330;51.360;6.686;2022-11-12T02:49:35;6.30;92.20
42663;DHT22;44330;51.360;6.686;2022-11-12T02:52:01;6.30;92.20
42663;DHT22;44330;51.360;6.686;2022-11-12T02:54:26;6.30;92.20
42663;DHT22;44330;51.360;6.686;2022-11-12T02:56:52;6.40;92.20
42663;DHT22;44330;51.360;6.686;2022-11-12T02:59:20;6.30;92.10
42663;DHT22;44330;51.360;6.686;2022-11-12T03:01:45;6.40;92.10
42663;DHT22;44330;51.360;6.686;2022-11-12T03:04:11;6.30;92.10
42663;DHT22;44330;51.360;6.686;2022-11-12T03:06:36;6.30;92.00
42663;DHT22;44330;51.360;6.686;2022-11-12T03:09:02;6.30;92.00
42663;DHT22;44330;51.360;6.686;2022-11-12T03:11:28;6.30;92.10
42663;DHT22;44330;51.360;6.686;2022-11-12T03:13:53;6.30;92.00
42663;DHT22;44330;51.360;6.686;2022-11-12T03:16:19;6.30;92.00
42663;DHT22;44330;51.360;6.686;2022-11-12T03:18:44;6.30;91.90
42663;DHT22;44330;51.360;6.686;2022-11-12T03:21:10;6.20;91.80
42663;DHT22;44330;51.360;6.686;2022-11-12T03:23:35;6.20;91.70
42663;DHT22;44330;51.360;6.686;2022-11-12T03:26:02;6.20;91.60
42663;DHT22;44330;51.360;6.686;2022-11-12T03:28:28;6.20;91.60
42663;DHT22;44330;51.360;6.686;2022-11-12T03:30:57;6.10;91.50
42663;DHT22;44330;51.360;6.686;2022-11-12T03:33:23;6.10;91.50
42663;DHT22;44330;51.360;6.686;2022-11-12T03:35:49;6.10;91.40
42663;DHT22;44330;51.360;6.686;2022-11-12T03:38:14;6.10;91.40
42663;DHT22;44330;51.360;6.686;2022-11-12T03:40:40;6.00;91.40
42663;DHT22;44330;51.360;6.686;2022-11-12T03:43:05;6.00;91.40
42663;DHT22;44330;51.360;6.686;2022-11-12T03:45:31;6.00;91.40
42663;DHT22;44330;51.360;6.686;2022-11-12T03:47:57;6.00;91.30
42663;DHT22;44330;51.360;6.686;2022-11-12T03:50:25;6.00;91.30
42663;DHT22;44330;51.360;6.686;2022-11-12T03:52:53;6.00;91.30
42663;DHT22;44330;51.360;6.686;2022-11-12T03:55:20;6.00;91.30
42663;DHT22;44330;51.360;6.686;2022-11-12T03:57:49;5.90;91.10
42663;DHT22;44330;51.360;6.686;2022-11-12T04:00:15;5.90;91.00
42663;DHT22;44330;51.360;6.686;2022-11-12T04:02:41;5.90;91.00
42663;DHT22;44330;51.360;6.686;2022-11-12T04:05:07;5.90;91.10
42663;DHT22;44330;51.360;6.686;2022-11-12T04:07:58;5.90;91.00
42663;DHT22;44330;51.360;6.686;2022-11-12T04:10:43;5.80;91.00
42663;DHT22;44330;51.360;6.686;2022-11-12T04:16:30;5.80;91.00
42663;DHT22;44330;51.360;6.686;2022-11-12T04:19:14;5.80;91.00
42663;DHT22;44330;51.360;6.686;2022-11-12T04:22:08;5.70;91.00
42663;DHT22;44330;51.360;6.686;2022-11-12T04:24:35;5.70;91.10
42663;DHT22;44330;51.360;6.686;2022-11-12T04:27:28;5.70;91.10
42663;DHT22;44330;51.360;6.686;2022-11-12T04:29:54;5.70;91.20
42663;DHT22;44330;51.360;6.686;2022-11-12T04:32:44;5.70;91.20
42663;DHT22;44330;51.360;6.686;2022-11-12T04:35:10;5.70;91.20
42663;DHT22;44330;51.360;6.686;2022-11-12T04:37:36;5.60;91.20
42663;DHT22;44330;51.360;6.686;2022-11-12T04:40:30;5.70;91.30
42663;DHT22;44330;51.360;6.686;2022-11-12T04:43:16;5.60;91.30
42663;DHT22;44330;51.360;6.686;2022-11-12T04:46:01;5.60;91.30
42663;DHT22;44330;51.360;6.686;2022-11-12T04:48:27;5.60;91.30
42663;DHT22;44330;51.360;6.686;2022-11-12T04:50:56;5.60;91.30
42663;DHT22;44330;51.360;6.686;2022-11-12T04:53:22;5.60;91.30
42663;DHT22;44330;51.360;6.686;2022-11-12T04:55:49;5.60;91.20
42663;DHT22;44330;51.360;6.686;2022-11-12T04:58:15;5.50;91.20
42663;DHT22;44330;51.360;6.686;2022-11-12T05:00:40;5.50;91.10
42663;DHT22;44330;51.360;6.686;2022-11-12T05:03:06;5.50;91.20
42663;DHT22;44330;51.360;6.686;2022-11-12T05:05:31;5.50;91.20
42663;DHT22;44330;51.360;6.686;2022-11-12T05:07:59;5.50;91.20
42663;DHT22;44330;51.360;6.686;2022-11-12T05:10:24;5.40;91.20
42663;DHT22;44330;51.360;6.686;2022-11-12T05:12:50;5.40;91.30
42663;DHT22;44330;51.360;6.686;2022-11-12T05:15:15;5.40;91.30
42663;DHT22;44330;51.360;6.686;2022-11-12T05:17:42;5.40;91.30
42663;DHT22;44330;51.360;6.686;2022-11-12T05:20:12;5.40;91.40
42663;DHT22;44330;51.360;6.686;2022-11-12T05:22:38;5.40;91.40
42663;DHT22;44330;51.360;6.686;2022-11-12T05:25:04;5.40;91.40
42663;DHT22;44330;51.360;6.686;2022-11-12T05:27:30;5.30;91.40
42663;DHT22;44330;51.360;6.686;2022-11-12T05:29:56;5.30;91.40
42663;DHT22;44330;51.360;6.686;2022-11-12T05:32:21;5.30;91.40
42663;DHT22;44330;51.360;6.686;2022-11-12T05:34:47;5.30;91.40
42663;DHT22;44330;51.360;6.686;2022-11-12T05:37:13;5.30;91.40
42663;DHT22;44330;51.360;6.686;2022-11-12T05:39:39;5.20;91.50
42663;DHT22;44330;51.360;6.686;2022-11-12T05:42:05;5.20;91.50
42663;DHT22;44330;51.360;6.686;2022-11-12T05:44:31;5.20;91.60
42663;DHT22;44330;51.360;6.686;2022-11-12T05:46:56;5.20;91.60
42663;DHT22;44330;51.360;6.686;2022-11-12T05:49:22;5.30;91.60
42663;DHT22;44330;51.360;6.686;2022-11-12T05:51:47;5.30;91.60
42663;DHT22;44330;51.360;6.686;2022-11-12T05:54:13;5.20;91.60
42663;DHT22;44330;51.360;6.686;2022-11-12T05:56:39;5.20;91.70
42663;DHT22;44330;51.360;6.686;2022-11-12T05:59:07;5.20;91.60
42663;DHT22;44330;51.360;6.686;2022-11-12T06:01:33;5.20;91.60
42663;DHT22;44330;51.360;6.686;2022-11-12T06:04:03;5.10;91.50
42663;DHT22;44330;51.360;6.686;2022-11-12T06:06:28;5.10;91.60
42663;DHT22;44330;51.360;6.686;2022-11-12T06:08:54;5.10;91.70
42663;DHT22;44330;51.360;6.686;2022-11-12T06:11:20;5.10;91.80
42663;DHT22;44330;51.360;6.686;2022-11-12T06:13:45;5.10;91.80
42663;DHT22;44330;51.360;6.686;2022-11-12T06:16:11;5.10;91.80
42663;DHT22;44330;51.360;6.686;2022-11-12T06:18:37;5.00;92.00
42663;DHT22;44330;51.360;6.686;2022-11-12T06:21:07;5.00;91.80
42663;DHT22;44330;51.360;6.686;2022-11-12T06:23:51;5.00;92.00
42663;DHT22;44330;51.360;6.686;2022-11-12T06:26:18;5.00;92.10
42663;DHT22;44330;51.360;6.686;2022-11-12T06:28:44;5.10;92.20
42663;DHT22;44330;51.360;6.686;2022-11-12T06:31:10;5.10;92.20
42663;DHT22;44330;51.360;6.686;2022-11-12T06:33:35;5.10;92.20
42663;DHT22;44330;51.360;6.686;2022-11-12T06:36:03;5.10;92.20
42663;DHT22;44330;51.360;6.686;2022-11-12T06:38:29;5.10;92.20
42663;DHT22;44330;51.360;6.686;2022-11-12T06:40:55;5.10;92.30
42663;DHT22;44330;51.360;6.686;2022-11-12T06:43:21;5.10;92.20
42663;DHT22;44330;51.360;6.686;2022-11-12T06:45:47;5.10;92.20
42663;DHT22;44330;51.360;6.686;2022-11-12T06:48:12;5.00;92.10
42663;DHT22;44330;51.360;6.686;2022-11-12T06:50:38;5.10;92.10
42663;DHT22;44330;51.360;6.686;2022-11-12T06:53:03;5.10;92.20
42663;DHT22;44330;51.360;6.686;2022-11-12T06:55:29;5.10;92.20
42663;DHT22;44330;51.360;6.686;2022-11-12T06:57:55;5.10;92.20
42663;DHT22;44330;51.360;6.686;2022-11-12T07:00:20;5.10;92.20
42663;DHT22;44330;51.360;6.686;2022-11-12T07:02:46;5.10;92.10
42663;DHT22;44330;51.360;6.686;2022-11-12T07:05:11;5.10;92.20
42663;DHT22;44330;51.360;6.686;2022-11-12T07:07:37;5.10;92.20
42663;DHT22;44330;51.360;6.686;2022-11-12T07:10:04;5.10;92.20
42663;DHT22;44330;51.360;6.686;2022-11-12T07:12:29;5.20;92.30
42663;DHT22;44330;51.360;6.686;2022-11-12T07:14:55;5.20;92.30
42663;DHT22;44330;51.360;6.686;2022-11-12T07:17:21;5.20;92.30
42663;DHT22;44330;51.360;6.686;2022-11-12T07:19:46;5.20;92.30
42663;DHT22;44330;51.360;6.686;2022-11-12T07:22:12;5.20;92.30
42663;DHT22;44330;51.360;6.686;2022-11-12T07:24:37;5.20;92.40
42663;DHT22;44330;51.360;6.686;2022-11-12T07:27:03;5.30;92.40
42663;DHT22;44330;51.360;6.686;2022-11-12T07:29:29;5.30;92.50
42663;DHT22;44330;51.360;6.686;2022-11-12T07:31:55;5.40;92.60
42663;DHT22;44330;51.360;6.686;2022-11-12T07:34:20;5.50;92.70
42663;DHT22;44330;51.360;6.686;2022-11-12T07:36:46;5.60;92.70
42663;DHT22;44330;51.360;6.686;2022-11-12T07:39:13;5.60;92.80
42663;DHT22;44330;51.360;6.686;2022-11-12T07:41:38;5.60;92.80
42663;DHT22;44330;51.360;6.686;2022-11-12T07:44:04;5.70;92.90
42663;DHT22;44330;51.360;6.686;2022-11-12T07:46:29;5.80;92.90
42663;DHT22;44330;51.360;6.686;2022-11-12T07:48:55;5.80;92.90
42663;DHT22;44330;51.360;6.686;2022-11-12T07:51:23;5.90;92.90
42663;DHT22;44330;51.360;6.686;2022-11-12T07:53:51;5.90;93.00
42663;DHT22;44330;51.360;6.686;2022-11-12T07:56:19;5.90;93.00
42663;DHT22;44330;51.360;6.686;2022-11-12T07:58:45;6.00;93.10
42663;DHT22;44330;51.360;6.686;2022-11-12T08:01:29;6.10;93.10
42663;DHT22;44330;51.360;6.686;2022-11-12T08:03:56;6.20;93.20
42663;DHT22;44330;51.360;6.686;2022-11-12T08:06:21;6.20;93.20
42663;DHT22;44330;51.360;6.686;2022-11-12T08:08:50;6.30;93.20
42663;DHT22;44330;51.360;6.686;2022-11-12T08:11:15;6.40;93.30
42663;DHT22;44330;51.360;6.686;2022-11-12T08:13:41;6.50;93.30
42663;DHT22;44330;51.360;6.686;2022-11-12T08:16:06;6.60;93.40
42663;DHT22;44330;51.360;6.686;2022-11-12T08:18:32;6.80;93.40
42663;DHT22;44330;51.360;6.686;2022-11-12T08:20:59;6.90;93.50
42663;DHT22;44330;51.360;6.686;2022-11-12T08:23:25;7.00;93.40
42663;DHT22;44330;51.360;6.686;2022-11-12T08:25:50;7.10;93.40
42663;DHT22;44330;51.360;6.686;2022-11-12T08:28:16;7.20;93.40
42663;DHT22;44330;51.360;6.686;2022-11-12T08:30:41;7.40;93.30
42663;DHT22;44330;51.360;6.686;2022-11-12T08:33:07;7.50;92.90
42663;DHT22;44330;51.360;6.686;2022-11-12T08:35:33;7.60;92.30
42663;DHT22;44330;51.360;6.686;2022-11-12T08:38:03;7.80;91.20
42663;DHT22;44330;51.360;6.686;2022-11-12T08:40:31;8.00;89.50
42663;DHT22;44330;51.360;6.686;2022-11-12T08:43:02;8.10;87.00
42663;DHT22;44330;51.360;6.686;2022-11-12T08:45:30;8.30;84.50
42663;DHT22;44330;51.360;6.686;2022-11-12T08:48:04;8.50;82.20
42663;DHT22;44330;51.360;6.686;2022-11-12T08:50:30;8.60;80.90
42663;DHT22;44330;51.360;6.686;2022-11-12T08:53:04;8.90;78.70
42663;DHT22;44330;51.360;6.686;2022-11-12T08:55:30;9.00;77.50
42663;DHT22;44330;51.360;6.686;2022-11-12T08:57:57;9.20;76.80
42663;DHT22;44330;51.360;6.686;2022-11-12T09:00:27;9.40;76.30
42663;DHT22;44330;51.360;6.686;2022-11-12T09:02:53;9.50;71.10
42663;DHT22;44330;51.360;6.686;2022-11-12T09:05:18;9.70;66.20
42663;DHT22;44330;51.360;6.686;2022-11-12T09:07:44;9.90;65.50
42663;DHT22;44330;51.360;6.686;2022-11-12T09:10:09;10.10;63.10
42663;DHT22;44330;51.360;6.686;2022-11-12T09:12:35;10.30;62.00
42663;DHT22;44330;51.360;6.686;2022-11-12T09:15:00;10.50;56.70
42663;DHT22;44330;51.360;6.686;2022-11-12T09:17:26;10.80;50.60
42663;DHT22;44330;51.360;6.686;2022-11-12T09:19:53;11.00;50.90
42663;DHT22;44330;51.360;6.686;2022-11-12T09:22:19;11.30;42.50
42663;DHT22;44330;51.360;6.686;2022-11-12T09:24:44;11.50;35.50
42663;DHT22;44330;51.360;6.686;2022-11-12T09:27:10;11.80;35.00
42663;DHT22;44330;51.360;6.686;2022-11-12T09:29:35;12.00;32.00
42663;DHT22;44330;51.360;6.686;2022-11-12T09:32:01;12.20;19.90
42663;DHT22;44330;51.360;6.686;2022-11-12T09:34:26;12.30;8.30
42663;DHT22;44330;51.360;6.686;2022-11-12T09:36:52;12.50;6.80
42663;DHT22;44330;51.360;6.686;2022-11-12T09:39:19;12.60;3.50
42663;DHT22;44330;51.360;6.686;2022-11-12T09:41:44;12.80;5.20
42663;DHT22;44330;51.360;6.686;2022-11-12T09:44:17;13.00;1.00
42663;DHT22;44330;51.360;6.686;2022-11-12T09:46:53;13.10;1.00
42663;DHT22;44330;51.360;6.686;2022-11-12T09:49:27;13.40;1.00
42663;DHT22;44330;51.360;6.686;2022-11-12T09:54:31;13.70;1.00
42663;DHT22;44330;51.360;6.686;2022-11-12T09:56:57;13.70;1.00
42663;DHT22;44330;51.360;6.686;2022-11-12T09:59:27;13.70;99.90
42663;DHT22;44330;51.360;6.686;2022-11-12T10:10:52;13.90;1.00
42663;DHT22;44330;51.360;6.686;2022-11-12T10:13:46;14.00;1.00
42663;DHT22;44330;51.360;6.686;2022-11-12T10:24:52;14.50;99.90
42663;DHT22;44330;51.360;6.686;2022-11-12T10:27:21;14.60;99.90
42663;DHT22;44330;51.360;6.686;2022-11-12T10:29:59;14.80;99.90
42663;DHT22;44330;51.360;6.686;2022-11-12T10:32:26;14.90;99.90
42663;DHT22;44330;51.360;6.686;2022-11-12T10:34:52;14.90;99.90
42663;DHT22;44330;51.360;6.686;2022-11-12T10:37:27;15.00;99.90
42663;DHT22;44330;51.360;6.686;2022-11-12T10:39:56;15.10;99.90
42663;DHT22;44330;51.360;6.686;2022-11-12T10:42:22;15.20;97.50
42663;DHT22;44330;51.360;6.686;2022-11-12T10:44:48;15.20;99.90
42663;DHT22;44330;51.360;6.686;2022-11-12T10:53:09;15.30;92.40
42663;DHT22;44330;51.360;6.686;2022-11-12T10:55:39;15.30;4.20
42663;DHT22;44330;51.360;6.686;2022-11-12T10:58:18;15.30;11.50
42663;DHT22;44330;51.360;6.686;2022-11-12T11:03:30;15.40;1.00
42663;DHT22;44330;51.360;6.686;2022-11-12T11:05:59;15.30;63.10
42663;DHT22;44330;51.360;6.686;2022-11-12T11:13:46;15.30;99.90
42663;DHT22;44330;51.360;6.686;2022-11-12T11:16:15;15.30;97.30
42663;DHT22;44330;51.360;6.686;2022-11-12T11:18:45;15.40;99.90
42663;DHT22;44330;51.360;6.686;2022-11-12T11:23:51;15.50;75.40
42663;DHT22;44330;51.360;6.686;2022-11-12T11:29:20;15.50;99.90
42663;DHT22;44330;51.360;6.686;2022-11-12T11:31:58;15.40;99.90
42663;DHT22;44330;51.360;6.686;2022-11-12T11:34:52;15.40;99.90
42663;DHT22;44330;51.360;6.686;2022-11-12T11:37:27;15.50;1.00
42663;DHT22;44330;51.360;6.686;2022-11-12T11:48:52;15.70;6.00
42663;DHT22;44330;51.360;6.686;2022-11-12T11:51:38;15.80;99.90
42663;DHT22;44330;51.360;6.686;2022-11-12T11:57:11;16.00;99.90
42663;DHT22;44330;51.360;6.686;2022-11-12T11:59:50;16.10;99.90
42663;DHT22;44330;51.360;6.686;2022-11-12T12:16:19;16.20;70.50
42663;DHT22;44330;51.360;6.686;2022-11-12T12:19:07;16.20;99.90
42663;DHT22;44330;51.360;6.686;2022-11-12T12:21:38;16.30;99.90
42663;DHT22;44330;51.360;6.686;2022-11-12T12:24:16;16.30;99.90
42663;DHT22;44330;51.360;6.686;2022-11-12T12:26:47;16.30;99.90
42663;DHT22;44330;51.360;6.686;2022-11-12T12:29:24;16.40;1.00
42663;DHT22;44330;51.360;6.686;2022-11-12T12:32:02;16.30;99.90
42663;DHT22;44330;51.360;6.686;2022-11-12T12:34:44;16.40;99.90
42663;DHT22;44330;51.360;6.686;2022-11-12T12:40:20;16.40;1.00
42663;DHT22;44330;51.360;6.686;2022-11-12T12:42:56;16.40;99.90
42663;DHT22;44330;51.360;6.686;2022-11-12T12:45:42;16.40;1.00
42663;DHT22;44330;51.360;6.686;2022-11-12T12:48:19;16.40;1.00
42663;DHT22;44330;51.360;6.686;2022-11-12T12:50:47;16.50;77.60
42663;DHT22;44330;51.360;6.686;2022-11-12T12:53:21;16.50;99.90
42663;DHT22;44330;51.360;6.686;2022-11-12T12:55:56;16.50;99.90
42663;DHT22;44330;51.360;6.686;2022-11-12T12:58:29;16.60;99.90
42663;DHT22;44330;51.360;6.686;2022-11-12T13:01:27;16.70;1.00
42663;DHT22;44330;51.360;6.686;2022-11-12T13:04:00;16.70;99.90
42663;DHT22;44330;51.360;6.686;2022-11-12T13:06:37;16.70;1.00
42663;DHT22;44330;51.360;6.686;2022-11-12T13:17:11;16.90;99.90
42663;DHT22;44330;51.360;6.686;2022-11-12T13:19:44;16.90;71.40
42663;DHT22;44330;51.360;6.686;2022-11-12T13:32:53;16.80;99.90
42663;DHT22;44330;51.360;6.686;2022-11-12T13:37:56;16.90;99.90
42663;DHT22;44330;51.360;6.686;2022-11-12T13:48:39;17.00;26.00
42663;DHT22;44330;51.360;6.686;2022-11-12T13:53:55;17.00;99.90
42663;DHT22;44330;51.360;6.686;2022-11-12T13:56:32;17.00;99.90
42663;DHT22;44330;51.360;6.686;2022-11-12T14:01:37;17.00;99.90
42663;DHT22;44330;51.360;6.686;2022-11-12T14:04:06;17.00;99.90
42663;DHT22;44330;51.360;6.686;2022-11-12T14:06:37;17.10;1.00
42663;DHT22;44330;51.360;6.686;2022-11-12T14:19:54;17.20;1.00
42663;DHT22;44330;51.360;6.686;2022-11-12T14:22:24;17.20;99.90
42663;DHT22;44330;51.360;6.686;2022-11-12T14:25:02;17.30;99.90
42663;DHT22;44330;51.360;6.686;2022-11-12T14:30:13;17.20;99.90
42663;DHT22;44330;51.360;6.686;2022-11-12T14:32:41;17.20;99.90
42663;DHT22;44330;51.360;6.686;2022-11-12T14:37:54;17.10;99.90
42663;DHT22;44330;51.360;6.686;2022-11-12T14:40:21;16.90;99.90
42663;DHT22;44330;51.360;6.686;2022-11-12T14:42:48;16.80;99.90
42663;DHT22;44330;51.360;6.686;2022-11-12T14:45:20;16.70;99.90
42663;DHT22;44330;51.360;6.686;2022-11-12T14:47:47;16.70;1.00
42663;DHT22;44330;51.360;6.686;2022-11-12T14:50:19;16.50;87.00
42663;DHT22;44330;51.360;6.686;2022-11-12T14:52:49;16.40;99.90
42663;DHT22;44330;51.360;6.686;2022-11-12T14:55:21;16.20;99.90
42663;DHT22;44330;51.360;6.686;2022-11-12T14:57:47;16.10;99.90
42663;DHT22;44330;51.360;6.686;2022-11-12T15:00:20;16.00;99.90
42663;DHT22;44330;51.360;6.686;2022-11-12T15:03:00;15.90;99.90
42663;DHT22;44330;51.360;6.686;2022-11-12T15:05:26;15.80;99.90
42663;DHT22;44330;51.360;6.686;2022-11-12T15:08:02;15.70;1.00
42663;DHT22;44330;51.360;6.686;2022-11-12T15:13:14;15.50;1.00
42663;DHT22;44330;51.360;6.686;2022-11-12T15:15:52;15.30;1.00
42663;DHT22;44330;51.360;6.686;2022-11-12T15:18:21;15.20;1.00
42663;DHT22;44330;51.360;6.686;2022-11-12T15:21:24;15.00;1.00
42663;DHT22;44330;51.360;6.686;2022-11-12T15:24:04;14.90;1.00
42663;DHT22;44330;51.360;6.686;2022-11-12T15:26:34;14.80;1.00
42663;DHT22;44330;51.360;6.686;2022-11-12T15:29:46;14.70;1.00
42663;DHT22;44330;51.360;6.686;2022-11-12T15:32:34;14.60;3.00
42663;DHT22;44330;51.360;6.686;2022-11-12T15:37:35;14.30;1.00
42663;DHT22;44330;51.360;6.686;2022-11-12T15:39:55;14.20;1.00
42663;DHT22;44330;51.360;6.686;2022-11-12T15:42:27;14.10;1.00
42663;DHT22;44330;51.360;6.686;2022-11-12T15:44:57;14.00;1.00
42663;DHT22;44330;51.360;6.686;2022-11-12T15:47:24;13.90;1.00
42663;DHT22;44330;51.360;6.686;2022-11-12T15:49:51;13.70;1.00
42663;DHT22;44330;51.360;6.686;2022-11-12T15:52:18;13.60;1.00
42663;DHT22;44330;51.360;6.686;2022-11-12T15:54:44;13.50;1.00
42663;DHT22;44330;51.360;6.686;2022-11-12T15:57:13;13.40;6.10
42663;DHT22;44330;51.360;6.686;2022-11-12T15:59:41;13.30;9.50
42663;DHT22;44330;51.360;6.686;2022-11-12T16:02:11;13.20;11.70
42663;DHT22;44330;51.360;6.686;2022-11-12T16:04:37;13.10;13.30
42663;DHT22;44330;51.360;6.686;2022-11-12T16:07:03;13.00;15.30
42663;DHT22;44330;51.360;6.686;2022-11-12T16:09:31;12.90;16.60
42663;DHT22;44330;51.360;6.686;2022-11-12T16:11:57;12.90;17.50
42663;DHT22;44330;51.360;6.686;2022-11-12T16:14:25;12.80;19.20
42663;DHT22;44330;51.360;6.686;2022-11-12T16:16:51;12.70;20.00
42663;DHT22;44330;51.360;6.686;2022-11-12T16:19:16;12.60;21.20
42663;DHT22;44330;51.360;6.686;2022-11-12T16:21:42;12.50;20.90
42663;DHT22;44330;51.360;6.686;2022-11-12T16:24:07;12.50;20.40
42663;DHT22;44330;51.360;6.686;2022-11-12T16:26:33;12.40;21.70
42663;DHT22;44330;51.360;6.686;2022-11-12T16:28:59;12.30;23.70
42663;DHT22;44330;51.360;6.686;2022-11-12T16:31:25;12.30;25.60
42663;DHT22;44330;51.360;6.686;2022-11-12T16:33:51;12.20;26.50
42663;DHT22;44330;51.360;6.686;2022-11-12T16:36:17;12.10;27.40
42663;DHT22;44330;51.360;6.686;2022-11-12T16:38:44;12.00;28.10
42663;DHT22;44330;51.360;6.686;2022-11-12T16:41:11;12.00;28.80
42663;DHT22;44330;51.360;6.686;2022-11-12T16:43:37;12.00;29.20
42663;DHT22;44330;51.360;6.686;2022-11-12T16:46:12;12.00;29.90
42663;DHT22;44330;51.360;6.686;2022-11-12T16:48:38;11.90;31.50
42663;DHT22;44330;51.360;6.686;2022-11-12T16:51:04;11.80;33.00
42663;DHT22;44330;51.360;6.686;2022-11-12T16:53:29;11.80;34.20
42663;DHT22;44330;51.360;6.686;2022-11-12T16:55:56;11.70;35.30
42663;DHT22;44330;51.360;6.686;2022-11-12T16:58:21;11.70;36.10
42663;DHT22;44330;51.360;6.686;2022-11-12T17:00:47;11.60;37.50
42663;DHT22;44330;51.360;6.686;2022-11-12T17:03:14;11.60;38.30
42663;DHT22;44330;51.360;6.686;2022-11-12T17:05:40;11.50;39.90
42663;DHT22;44330;51.360;6.686;2022-11-12T17:08:08;11.40;41.00
42663;DHT22;44330;51.360;6.686;2022-11-12T17:10:33;11.40;42.40
42663;DHT22;44330;51.360;6.686;2022-11-12T17:12:59;11.40;42.80
42663;DHT22;44330;51.360;6.686;2022-11-12T17:15:25;11.30;43.80
42663;DHT22;44330;51.360;6.686;2022-11-12T17:17:53;11.20;44.70
42663;DHT22;44330;51.360;6.686;2022-11-12T17:20:19;11.20;46.20
42663;DHT22;44330;51.360;6.686;2022-11-12T17:22:45;11.20;46.60
42663;DHT22;44330;51.360;6.686;2022-11-12T17:25:10;11.10;47.70
42663;DHT22;44330;51.360;6.686;2022-11-12T17:27:36;11.00;47.90
42663;DHT22;44330;51.360;6.686;2022-11-12T17:30:02;11.00;48.40
42663;DHT22;44330;51.360;6.686;2022-11-12T17:32:28;10.80;49.20
42663;DHT22;44330;51.360;6.686;2022-11-12T17:34:53;10.80;50.00
42663;DHT22;44330;51.360;6.686;2022-11-12T17:37:19;10.70;50.40
42663;DHT22;44330;51.360;6.686;2022-11-12T17:39:44;10.70;50.30
42663;DHT22;44330;51.360;6.686;2022-11-12T17:42:10;10.60;50.80
42663;DHT22;44330;51.360;6.686;2022-11-12T17:44:35;10.50;51.20
42663;DHT22;44330;51.360;6.686;2022-11-12T17:47:01;10.50;51.90
42663;DHT22;44330;51.360;6.686;2022-11-12T17:49:27;10.40;52.50
42663;DHT22;44330;51.360;6.686;2022-11-12T17:51:52;10.40;52.80
42663;DHT22;44330;51.360;6.686;2022-11-12T17:54:19;10.30;52.90
42663;DHT22;44330;51.360;6.686;2022-11-12T17:56:45;10.30;52.80
42663;DHT22;44330;51.360;6.686;2022-11-12T17:59:10;10.20;52.70